createdAt,value
2022-08-21T00:00:25.523Z,97.60
2022-08-21T00:01:25.506Z,97.60
2022-08-21T00:02:25.555Z,97.49
2022-08-21T00:03:25.480Z,97.60
2022-08-21T00:04:25.966Z,97.60
2022-08-21T00:05:25.458Z,97.60
2022-08-21T00:06:25.433Z,97.60
2022-08-21T00:07:25.478Z,97.60
2022-08-21T00:08:25.407Z,97.60
2022-08-21T00:09:25.394Z,97.49
2022-08-21T00:10:25.388Z,97.60
2022-08-21T00:11:25.371Z,97.49
2022-08-21T00:12:25.355Z,97.49
2022-08-21T00:13:25.340Z,97.53
2022-08-21T00:14:25.324Z,97.53
2022-08-21T00:15:25.315Z,97.53
2022-08-21T00:16:25.296Z,97.53
2022-08-21T00:17:25.282Z,97.53
2022-08-21T00:18:25.268Z,97.64
2022-08-21T00:19:25.261Z,97.64
2022-08-21T00:20:25.595Z,97.53
2022-08-21T00:21:25.234Z,97.64
2022-08-21T00:22:25.213Z,97.64
2022-08-21T00:23:25.203Z,97.53
2022-08-21T00:24:25.186Z,97.64
2022-08-21T00:25:26.111Z,97.64
2022-08-21T00:26:25.159Z,97.74
2022-08-21T00:27:25.153Z,97.64
2022-08-21T00:28:25.135Z,97.64
2022-08-21T00:29:25.129Z,97.69
2022-08-21T00:30:25.101Z,97.69
2022-08-21T00:31:25.085Z,97.78
2022-08-21T00:32:25.069Z,97.78
2022-08-21T00:33:25.058Z,97.78
2022-08-21T00:34:25.041Z,97.74
2022-08-21T00:35:25.034Z,97.84
2022-08-21T00:36:25.015Z,97.84
2022-08-21T00:37:25.001Z,97.74
2022-08-21T00:38:24.997Z,97.78
2022-08-21T00:39:24.982Z,97.69
2022-08-21T00:40:24.971Z,97.78
2022-08-21T00:41:38.239Z,97.78
2022-08-21T00:42:25.959Z,97.69
2022-08-21T00:43:24.925Z,97.69
2022-08-21T00:44:24.907Z,97.69
2022-08-21T00:45:24.898Z,97.69
2022-08-21T00:46:28.062Z,97.78
2022-08-21T00:47:24.866Z,97.69
2022-08-21T00:48:24.847Z,97.83
2022-08-21T00:49:24.838Z,97.69
2022-08-21T00:50:24.824Z,97.73
2022-08-21T00:51:24.807Z,97.93
2022-08-21T00:52:24.792Z,97.89
2022-08-21T00:53:24.780Z,97.93
2022-08-21T00:54:24.770Z,97.89
2022-08-21T00:55:24.762Z,97.89
2022-08-21T00:56:24.741Z,97.99
2022-08-21T00:57:24.735Z,97.99
2022-08-21T00:58:24.713Z,97.99
2022-08-21T00:59:24.703Z,98.03
2022-08-21T01:00:24.683Z,97.89
2022-08-21T01:01:24.732Z,97.89
2022-08-21T01:02:24.658Z,98.03
2022-08-21T01:03:24.654Z,97.93
2022-08-21T01:04:24.632Z,97.93
2022-08-21T01:05:24.621Z,97.89
2022-08-21T01:06:24.609Z,97.83
2022-08-21T01:07:24.595Z,97.93
2022-08-21T01:08:24.577Z,97.93
2022-08-21T01:09:24.566Z,98.03
2022-08-21T01:10:24.737Z,97.93
2022-08-21T01:11:24.536Z,97.93
2022-08-21T01:12:24.521Z,97.89
2022-08-21T01:13:24.507Z,97.93
2022-08-21T01:14:24.493Z,97.93
2022-08-21T01:15:24.476Z,97.93
2022-08-21T01:16:24.463Z,97.83
2022-08-21T01:17:24.455Z,97.83
2022-08-21T01:18:24.438Z,97.93
2022-08-21T01:19:24.441Z,97.93
2022-08-21T01:20:32.730Z,97.83
2022-08-21T01:21:28.381Z,97.83
2022-08-21T01:22:24.385Z,97.83
2022-08-21T01:23:24.376Z,97.83
2022-08-21T01:24:24.359Z,97.88
2022-08-21T01:25:24.345Z,97.93
2022-08-21T01:26:24.327Z,97.83
2022-08-21T01:27:25.330Z,97.83
2022-08-21T01:28:24.298Z,97.83
2022-08-21T01:29:24.289Z,97.93
2022-08-21T01:30:24.276Z,97.93
2022-08-21T01:31:24.767Z,97.98
2022-08-21T01:32:24.247Z,97.88
2022-08-21T01:33:24.239Z,97.88
2022-08-21T01:34:24.214Z,97.93
2022-08-21T01:35:24.206Z,97.93
2022-08-21T01:36:24.191Z,97.93
2022-08-21T01:37:24.177Z,97.93
2022-08-21T01:38:24.159Z,97.98
2022-08-21T01:39:24.150Z,97.98
2022-08-21T01:40:24.215Z,97.83
2022-08-21T01:41:24.120Z,97.88
2022-08-21T01:42:24.109Z,97.88
2022-08-21T01:43:32.367Z,97.88
2022-08-21T01:44:25.107Z,97.83
2022-08-21T01:45:24.073Z,97.88
2022-08-21T01:46:24.051Z,97.78
2022-08-21T01:47:24.049Z,97.78
2022-08-21T01:48:24.036Z,97.78
2022-08-21T01:49:24.016Z,97.78
2022-08-21T01:50:23.997Z,97.78
2022-08-21T01:51:23.989Z,97.92
2022-08-21T01:52:23.969Z,97.82
2022-08-21T01:53:27.938Z,97.78
2022-08-21T01:54:24.964Z,97.72
2022-08-21T01:55:23.931Z,97.82
2022-08-21T01:56:23.912Z,97.82
2022-08-21T01:57:26.359Z,97.82
2022-08-21T01:58:23.889Z,97.78
2022-08-21T01:59:23.882Z,97.82
2022-08-21T02:00:23.866Z,97.78
2022-08-21T02:01:23.917Z,97.78
2022-08-21T02:02:23.835Z,97.72
2022-08-21T02:03:26.401Z,97.82
2022-08-21T02:04:24.828Z,97.72
2022-08-21T02:05:23.795Z,97.87
2022-08-21T02:06:23.778Z,97.82
2022-08-21T02:07:23.773Z,97.92
2022-08-21T02:08:23.758Z,97.92
2022-08-21T02:09:24.349Z,97.92
2022-08-21T02:10:23.725Z,97.92
2022-08-21T02:11:23.716Z,97.82
2022-08-21T02:12:23.704Z,97.92
2022-08-21T02:14:40.286Z,97.82
2022-08-21T02:15:40.277Z,97.97
2022-08-21T02:16:40.261Z,97.97
2022-08-21T02:17:40.251Z,97.87
2022-08-21T02:18:40.227Z,97.87
2022-08-21T02:19:41.046Z,97.97
2022-08-21T02:20:40.201Z,97.97
2022-08-21T02:21:40.192Z,97.87
2022-08-21T02:22:40.174Z,97.87
2022-08-21T02:23:40.167Z,97.92
2022-08-21T02:24:53.972Z,97.92
2022-08-21T02:25:41.211Z,97.87
2022-08-21T02:26:40.132Z,97.97
2022-08-21T02:27:40.112Z,97.87
2022-08-21T02:28:40.100Z,97.97
2022-08-21T02:29:40.085Z,97.87
2022-08-21T02:30:40.068Z,97.87
2022-08-21T02:31:40.058Z,97.87
2022-08-21T02:32:40.043Z,97.87
2022-08-21T02:33:40.030Z,97.81
2022-08-21T02:34:40.015Z,97.87
2022-08-21T02:35:40.005Z,97.91
2022-08-21T02:36:39.991Z,97.91
2022-08-21T02:37:39.981Z,97.87
2022-08-21T02:38:39.959Z,97.87
2022-08-21T02:39:40.008Z,97.87
2022-08-21T02:40:39.933Z,97.97
2022-08-21T02:41:39.929Z,97.97
2022-08-21T02:42:39.901Z,97.87
2022-08-21T02:43:39.895Z,97.97
2022-08-21T02:44:39.874Z,97.91
2022-08-21T02:45:39.863Z,97.87
2022-08-21T02:46:39.852Z,97.97
2022-08-21T02:47:39.841Z,97.97
2022-08-21T02:48:39.824Z,97.97
2022-08-21T02:49:39.812Z,97.87
2022-08-21T02:50:39.801Z,98.02
2022-08-21T02:51:39.789Z,97.87
2022-08-21T02:52:39.773Z,97.87
2022-08-21T02:53:39.767Z,97.91
2022-08-21T02:54:39.744Z,97.87
2022-08-21T02:55:39.736Z,97.91
2022-08-21T02:56:39.719Z,97.91
2022-08-21T02:57:39.710Z,97.91
2022-08-21T02:58:39.690Z,97.97
2022-08-21T02:59:39.678Z,98.02
2022-08-21T03:00:39.659Z,98.02
2022-08-21T03:01:39.726Z,97.97
2022-08-21T03:02:39.640Z,98.07
2022-08-21T03:03:39.627Z,98.07
2022-08-21T03:04:42.313Z,98.07
2022-08-21T03:05:40.619Z,98.07
2022-08-21T03:06:39.615Z,98.07
2022-08-21T03:07:39.570Z,98.11
2022-08-21T03:08:39.559Z,97.97
2022-08-21T03:09:39.555Z,97.97
2022-08-21T03:10:40.559Z,97.97
2022-08-21T03:11:39.521Z,97.91
2022-08-21T03:12:39.508Z,97.91
2022-08-21T03:13:39.485Z,97.87
2022-08-21T03:14:39.478Z,97.91
2022-08-21T03:15:39.464Z,97.91
2022-08-21T03:16:39.457Z,97.91
2022-08-21T03:17:39.431Z,97.91
2022-08-21T03:18:39.947Z,97.91
2022-08-21T03:19:39.408Z,97.91
2022-08-21T03:20:39.395Z,98.02
2022-08-21T03:21:39.382Z,97.91
2022-08-21T03:22:39.368Z,97.91
2022-08-21T03:23:39.349Z,97.91
2022-08-21T03:24:39.339Z,97.96
2022-08-21T03:25:40.331Z,97.91
2022-08-21T03:26:41.421Z,97.91
2022-08-21T03:27:39.308Z,97.91
2022-08-21T03:28:39.293Z,97.96
2022-08-21T03:29:39.274Z,98.06
2022-08-21T03:30:39.266Z,98.02
2022-08-21T03:31:39.248Z,98.06
2022-08-21T03:32:39.241Z,98.06
2022-08-21T03:33:39.215Z,98.02
2022-08-21T03:34:39.208Z,97.96
2022-08-21T03:35:39.193Z,97.96
2022-08-21T03:36:39.186Z,97.96
2022-08-21T03:37:39.166Z,97.96
2022-08-21T03:38:39.164Z,97.96
2022-08-21T03:39:39.167Z,97.96
2022-08-21T03:40:39.131Z,97.96
2022-08-21T03:41:39.113Z,98.00
2022-08-21T03:42:39.106Z,97.96
2022-08-21T03:43:39.090Z,97.96
2022-08-21T03:44:39.077Z,97.96
2022-08-21T03:45:39.061Z,97.96
2022-08-21T03:46:39.054Z,97.96
2022-08-21T03:47:39.033Z,97.96
2022-08-21T03:48:39.028Z,98.00
2022-08-21T03:49:39.002Z,97.96
2022-08-21T03:50:40.662Z,98.00
2022-08-21T03:51:38.978Z,98.00
2022-08-21T03:52:38.973Z,98.00
2022-08-21T03:53:38.952Z,98.00
2022-08-21T03:54:38.949Z,98.00
2022-08-21T03:55:38.925Z,98.21
2022-08-21T03:56:38.914Z,98.11
2022-08-21T03:57:38.898Z,98.00
2022-08-21T03:58:38.891Z,98.06
2022-08-21T03:59:38.872Z,98.11
2022-08-21T04:00:38.858Z,98.11
2022-08-21T04:01:38.868Z,98.11
2022-08-21T04:02:38.832Z,98.11
2022-08-21T04:03:38.812Z,98.11
2022-08-21T04:04:38.804Z,98.11
2022-08-21T04:05:38.798Z,98.00
2022-08-21T04:06:38.776Z,98.00
2022-08-21T04:07:38.757Z,98.00
2022-08-21T04:08:38.751Z,98.00
2022-08-21T04:09:38.734Z,98.11
2022-08-21T04:10:38.726Z,98.00
2022-08-21T04:11:38.716Z,98.00
2022-08-21T04:12:38.700Z,98.00
2022-08-21T04:13:44.775Z,98.00
2022-08-21T04:14:39.692Z,98.11
2022-08-21T04:15:38.660Z,98.05
2022-08-21T04:16:38.641Z,98.00
2022-08-21T04:17:38.624Z,98.00
2022-08-21T04:18:38.613Z,98.00
2022-08-21T04:19:38.599Z,98.00
2022-08-21T04:20:38.584Z,98.00
2022-08-21T04:21:38.571Z,98.05
2022-08-21T04:22:38.565Z,98.05
2022-08-21T04:23:38.542Z,98.05
2022-08-21T04:24:38.539Z,98.05
2022-08-21T04:25:38.513Z,98.00
2022-08-21T04:26:38.506Z,98.15
2022-08-21T04:27:38.488Z,98.15
2022-08-21T04:28:38.477Z,98.15
2022-08-21T04:29:40.131Z,98.05
2022-08-21T04:30:38.451Z,98.15
2022-08-21T04:31:38.435Z,98.05
2022-08-21T04:32:38.720Z,98.05
2022-08-21T04:33:38.406Z,98.05
2022-08-21T04:34:38.394Z,98.05
2022-08-21T04:35:38.375Z,98.05
2022-08-21T04:36:38.365Z,98.05
2022-08-21T04:37:41.538Z,98.05
2022-08-21T04:38:38.339Z,98.00
2022-08-21T04:39:39.388Z,98.05
2022-08-21T04:40:38.315Z,98.15
2022-08-21T04:41:38.298Z,98.11
2022-08-21T04:42:38.285Z,98.11
2022-08-21T04:43:38.265Z,98.05
2022-08-21T04:44:38.257Z,98.00
2022-08-21T04:45:38.243Z,98.00
2022-08-21T04:46:38.231Z,98.00
2022-08-21T04:47:41.824Z,98.00
2022-08-21T04:48:39.227Z,97.90
2022-08-21T04:49:38.186Z,97.90
2022-08-21T04:50:38.176Z,97.80
2022-08-21T04:51:38.165Z,97.80
2022-08-21T04:52:38.151Z,97.80
2022-08-21T04:53:38.138Z,97.80
2022-08-21T04:54:38.122Z,97.70
2022-08-21T04:55:38.110Z,97.74
2022-08-21T04:56:38.096Z,97.70
2022-08-21T04:57:48.762Z,97.80
2022-08-21T04:58:39.095Z,97.85
2022-08-21T04:59:38.049Z,97.80
2022-08-21T05:00:38.039Z,97.85
2022-08-21T05:01:38.052Z,97.80
2022-08-21T05:02:38.014Z,97.80
2022-08-21T05:03:37.995Z,97.80
2022-08-21T05:04:37.985Z,97.80
2022-08-21T05:05:37.969Z,97.80
2022-08-21T05:06:37.981Z,97.90
2022-08-21T05:07:42.126Z,97.86
2022-08-21T05:08:37.934Z,97.86
2022-08-21T05:09:37.918Z,97.75
2022-08-21T05:10:37.902Z,97.86
2022-08-21T05:11:37.887Z,97.75
2022-08-21T05:12:37.875Z,97.75
2022-08-21T05:13:37.855Z,97.75
2022-08-21T05:14:37.856Z,97.75
2022-08-21T05:15:37.838Z,97.65
2022-08-21T05:16:38.023Z,97.65
2022-08-21T05:17:37.808Z,97.65
2022-08-21T05:18:37.800Z,97.55
2022-08-21T05:19:37.782Z,97.55
2022-08-21T05:20:37.770Z,97.40
2022-08-21T05:21:37.751Z,97.30
2022-08-21T05:22:37.736Z,97.40
2022-08-21T05:23:37.721Z,97.40
2022-08-21T05:24:37.713Z,97.40
2022-08-21T05:25:37.692Z,97.40
2022-08-21T05:26:38.272Z,97.30
2022-08-21T05:27:39.214Z,97.30
2022-08-21T05:28:37.655Z,97.30
2022-08-21T05:29:37.640Z,97.25
2022-08-21T05:30:37.634Z,97.30
2022-08-21T05:31:37.618Z,97.25
2022-08-21T05:32:37.611Z,97.16
2022-08-21T05:33:37.589Z,97.16
2022-08-21T05:34:37.585Z,97.16
2022-08-21T05:35:37.561Z,97.16
2022-08-21T05:36:37.557Z,97.11
2022-08-21T05:37:37.537Z,97.11
2022-08-21T05:38:37.525Z,97.11
2022-08-21T05:40:05.103Z,97.11
2022-08-21T05:40:38.538Z,97.11
2022-08-21T05:41:37.483Z,97.11
2022-08-21T05:42:37.491Z,96.96
2022-08-21T05:43:37.459Z,97.02
2022-08-21T05:44:37.451Z,97.02
2022-08-21T05:45:42.519Z,96.87
2022-08-21T05:46:38.436Z,96.77
2022-08-21T05:47:37.396Z,96.72
2022-08-21T05:48:37.391Z,96.88
2022-08-21T05:49:37.370Z,96.73
2022-08-21T05:50:37.362Z,96.48
2022-08-21T05:51:37.340Z,96.23
2022-08-21T05:52:37.332Z,96.14
2022-08-21T05:53:37.319Z,96.03
2022-08-21T05:54:37.310Z,95.68
2022-08-21T05:55:40.200Z,95.94
2022-08-21T05:56:37.287Z,95.39
2022-08-21T05:57:37.272Z,95.14
2022-08-21T05:58:37.257Z,95.04
2022-08-21T05:59:37.238Z,94.70
2022-08-21T06:00:37.230Z,94.45
2022-08-21T06:01:37.407Z,93.94
2022-08-21T06:02:37.195Z,94.00
2022-08-21T06:03:37.182Z,93.79
2022-08-21T06:04:37.168Z,93.51
2022-08-21T06:05:37.718Z,93.35
2022-08-21T06:06:37.141Z,92.80
2022-08-21T06:07:37.127Z,92.49
2022-08-21T06:08:37.118Z,92.45
2022-08-21T06:09:37.097Z,93.01
2022-08-21T06:10:37.091Z,92.06
2022-08-21T06:11:37.078Z,91.86
2022-08-21T06:12:37.067Z,91.11
2022-08-21T06:13:37.050Z,90.50
2022-08-21T06:14:37.037Z,90.50
2022-08-21T06:15:37.017Z,90.56
2022-08-21T06:16:37.011Z,90.92
2022-08-21T06:17:36.990Z,89.35
2022-08-21T06:18:36.982Z,89.01
2022-08-21T06:19:36.970Z,88.50
2022-08-21T06:20:36.960Z,89.97
2022-08-21T06:21:36.940Z,89.26
2022-08-21T06:22:36.931Z,87.62
2022-08-21T06:23:36.915Z,87.17
2022-08-21T06:24:36.911Z,87.07
2022-08-21T06:25:36.890Z,84.05
2022-08-21T06:26:36.870Z,84.51
2022-08-21T06:27:36.858Z,86.52
2022-08-21T06:28:36.851Z,85.52
2022-08-21T06:29:44.369Z,85.02
2022-08-21T06:30:37.834Z,84.01
2022-08-21T06:31:36.800Z,87.13
2022-08-21T06:32:36.790Z,85.08
2022-08-21T06:33:36.774Z,85.14
2022-08-21T06:34:36.773Z,82.52
2022-08-21T06:35:36.752Z,82.46
2022-08-21T06:36:36.743Z,84.43
2022-08-21T06:37:36.722Z,81.76
2022-08-21T06:38:37.066Z,83.53
2022-08-21T06:39:36.735Z,83.37
2022-08-21T06:40:36.685Z,82.97
2022-08-21T06:41:39.231Z,84.94
2022-08-21T06:42:36.661Z,83.85
2022-08-21T06:43:39.240Z,81.90
2022-08-21T06:44:36.629Z,81.10
2022-08-21T06:45:36.611Z,80.46
2022-08-21T06:46:36.609Z,77.11
2022-08-21T06:47:36.590Z,78.02
2022-08-21T06:48:36.578Z,79.28
2022-08-21T06:49:36.563Z,78.14
2022-08-21T06:50:36.546Z,78.04
2022-08-21T06:51:36.530Z,76.20
2022-08-21T06:52:36.522Z,77.36
2022-08-21T06:53:36.508Z,73.13
2022-08-21T06:54:36.496Z,74.93
2022-08-21T06:55:36.475Z,74.22
2022-08-21T06:56:36.468Z,74.09
2022-08-21T06:57:36.447Z,72.19
2022-08-21T06:58:36.443Z,72.76
2022-08-21T06:59:36.432Z,74.22
2022-08-21T07:00:36.416Z,74.92
2022-08-21T07:01:36.459Z,71.03
2022-08-21T07:02:36.393Z,73.82
2022-08-21T07:03:36.380Z,73.19
2022-08-21T07:04:36.368Z,71.69
2022-08-21T07:05:36.347Z,71.36
2022-08-21T07:06:36.338Z,72.05
2022-08-21T07:07:36.320Z,68.86
2022-08-21T07:08:36.307Z,70.42
2022-08-21T07:09:36.291Z,66.83
2022-08-21T07:10:36.286Z,70.03
2022-08-21T07:11:39.407Z,69.43
2022-08-21T07:12:37.273Z,68.43
2022-08-21T07:13:36.238Z,69.79
2022-08-21T07:14:36.235Z,70.83
2022-08-21T07:15:36.215Z,70.99
2022-08-21T07:16:36.209Z,70.65
2022-08-21T07:17:36.189Z,70.06
2022-08-21T07:18:36.174Z,70.86
2022-08-21T07:19:36.167Z,68.93
2022-08-21T07:20:36.147Z,68.33
2022-08-21T07:21:36.140Z,69.66
2022-08-21T07:22:36.119Z,69.62
2022-08-21T07:23:36.107Z,68.13
2022-08-21T07:24:36.096Z,71.55
2022-08-21T07:25:36.083Z,70.52
2022-08-21T07:26:36.069Z,66.80
2022-08-21T07:27:36.057Z,66.97
2022-08-21T07:28:36.039Z,65.68
2022-08-21T07:29:36.034Z,66.57
2022-08-21T07:30:36.049Z,66.67
2022-08-21T07:31:36.007Z,65.28
2022-08-21T07:32:35.993Z,67.63
2022-08-21T07:33:35.982Z,64.45
2022-08-21T07:34:35.970Z,65.51
2022-08-21T07:35:35.954Z,65.41
2022-08-21T07:36:35.939Z,67.80
2022-08-21T07:37:35.929Z,67.27
2022-08-21T07:38:35.913Z,65.12
2022-08-21T07:39:35.932Z,66.38
2022-08-21T07:40:35.885Z,64.19
2022-08-21T07:41:35.875Z,62.47
2022-08-21T07:42:35.863Z,63.07
2022-08-21T07:43:35.851Z,62.90
2022-08-21T07:44:35.833Z,63.73
2022-08-21T07:45:35.825Z,65.22
2022-08-21T07:46:35.811Z,65.19
2022-08-21T07:47:42.381Z,62.45
2022-08-21T07:48:36.811Z,62.67
2022-08-21T07:49:35.774Z,62.07
2022-08-21T07:50:35.753Z,64.00
2022-08-21T07:51:35.746Z,62.08
2022-08-21T07:52:35.728Z,61.79
2022-08-21T07:53:35.719Z,61.66
2022-08-21T07:54:35.714Z,59.97
2022-08-21T07:55:35.700Z,61.33
2022-08-21T07:56:35.686Z,61.40
2022-08-21T07:57:35.675Z,59.35
2022-08-21T07:58:35.655Z,59.72
2022-08-21T07:59:35.652Z,58.65
2022-08-21T08:00:35.632Z,57.27
2022-08-21T08:01:35.713Z,58.75
2022-08-21T08:02:35.601Z,58.46
2022-08-21T08:03:35.591Z,59.72
2022-08-21T08:04:35.576Z,58.60
2022-08-21T08:05:35.566Z,58.28
2022-08-21T08:06:35.549Z,55.93
2022-08-21T08:07:35.540Z,58.92
2022-08-21T08:08:35.681Z,57.34
2022-08-21T08:09:35.514Z,56.87
2022-08-21T08:10:35.505Z,58.43
2022-08-21T08:11:35.494Z,58.03
2022-08-21T08:12:35.477Z,59.89
2022-08-21T08:13:35.474Z,57.85
2022-08-21T08:14:35.451Z,56.17
2022-08-21T08:15:37.598Z,55.83
2022-08-21T08:16:35.427Z,59.00
2022-08-21T08:17:35.423Z,57.14
2022-08-21T08:18:35.398Z,58.01
2022-08-21T08:19:35.388Z,58.02
2022-08-21T08:20:35.372Z,55.20
2022-08-21T08:21:35.372Z,53.22
2022-08-21T08:22:35.351Z,54.11
2022-08-21T08:23:35.343Z,52.34
2022-08-21T08:24:35.327Z,53.79
2022-08-21T08:25:36.411Z,53.08
2022-08-21T08:26:35.299Z,52.85
2022-08-21T08:27:35.289Z,53.25
2022-08-21T08:28:35.277Z,51.25
2022-08-21T08:29:35.263Z,49.85
2022-08-21T08:30:35.247Z,48.94
2022-08-21T08:31:35.240Z,50.49
2022-08-21T08:32:35.222Z,49.13
2022-08-21T08:33:35.216Z,50.19
2022-08-21T08:34:35.205Z,49.77
2022-08-21T08:35:35.193Z,48.27
2022-08-21T08:36:35.177Z,50.02
2022-08-21T08:37:35.173Z,46.46
2022-08-21T08:38:35.152Z,45.38
2022-08-21T08:39:35.222Z,46.21
2022-08-21T08:40:35.126Z,47.36
2022-08-21T08:41:35.115Z,48.74
2022-08-21T08:42:35.106Z,51.40
2022-08-21T08:43:35.089Z,48.91
2022-08-21T08:44:35.344Z,50.46
2022-08-21T08:45:35.071Z,50.51
2022-08-21T08:46:35.051Z,49.40
2022-08-21T08:47:35.040Z,48.44
2022-08-21T08:48:35.026Z,48.17
2022-08-21T08:49:35.019Z,48.59
2022-08-21T08:50:35.003Z,49.26
2022-08-21T08:51:34.997Z,48.91
2022-08-21T08:52:34.980Z,49.06
2022-08-21T08:53:34.970Z,47.86
2022-08-21T08:54:34.961Z,46.95
2022-08-21T08:55:34.940Z,44.89
2022-08-21T08:56:34.925Z,44.01
2022-08-21T08:57:34.915Z,44.59
2022-08-21T08:58:34.947Z,45.16
2022-08-21T08:59:34.899Z,45.57
2022-08-21T09:00:34.883Z,44.96
2022-08-21T09:01:38.813Z,46.73
2022-08-21T09:02:34.862Z,42.90
2022-08-21T09:03:34.850Z,41.92
2022-08-21T09:04:34.834Z,42.80
2022-08-21T09:05:34.831Z,40.80
2022-08-21T09:06:34.803Z,43.65
2022-08-21T09:07:34.804Z,42.47
2022-08-21T09:08:34.790Z,41.96
2022-08-21T09:09:34.778Z,42.41
2022-08-21T09:10:34.754Z,40.17
2022-08-21T09:11:34.747Z,42.55
2022-08-21T09:12:34.737Z,40.66
2022-08-21T09:13:38.468Z,41.59
2022-08-21T09:14:34.714Z,41.17
2022-08-21T09:15:34.704Z,40.69
2022-08-21T09:16:34.687Z,43.73
2022-08-21T09:17:34.683Z,43.55
2022-08-21T09:18:34.666Z,44.42
2022-08-21T09:19:34.657Z,42.63
2022-08-21T09:20:34.643Z,42.51
2022-08-21T09:21:34.665Z,43.57
2022-08-21T09:22:34.637Z,41.96
2022-08-21T09:23:34.606Z,39.88
2022-08-21T09:24:34.589Z,42.99
2022-08-21T09:25:34.582Z,42.56
2022-08-21T09:26:34.573Z,43.71
2022-08-21T09:27:34.561Z,40.55
2022-08-21T09:28:34.544Z,39.94
2022-08-21T09:29:34.539Z,38.65
2022-08-21T09:30:34.518Z,39.29
2022-08-21T09:31:34.515Z,37.75
2022-08-21T09:32:36.822Z,38.82
2022-08-21T09:33:34.491Z,37.57
2022-08-21T09:34:34.519Z,37.67
2022-08-21T09:35:34.552Z,37.19
2022-08-21T09:36:34.455Z,37.87
2022-08-21T09:37:34.447Z,37.46
2022-08-21T09:38:34.462Z,36.72
2022-08-21T09:39:40.191Z,37.24
2022-08-21T09:40:35.518Z,38.92
2022-08-21T09:41:34.404Z,38.14
2022-08-21T09:42:34.389Z,38.04
2022-08-21T09:43:34.381Z,35.27
2022-08-21T09:44:34.368Z,35.45
2022-08-21T09:45:34.359Z,36.41
2022-08-21T09:46:34.337Z,34.67
2022-08-21T09:47:34.334Z,35.35
2022-08-21T09:48:34.315Z,35.82
2022-08-21T09:49:34.306Z,36.10
2022-08-21T09:50:34.292Z,33.75
2022-08-21T09:51:34.284Z,34.22
2022-08-21T09:52:34.270Z,33.92
2022-08-21T09:53:36.088Z,35.26
2022-08-21T09:54:34.251Z,35.15
2022-08-21T09:55:34.242Z,33.96
2022-08-21T09:56:34.229Z,31.92
2022-08-21T09:57:34.221Z,31.71
2022-08-21T09:58:34.202Z,33.09
2022-08-21T09:59:37.125Z,32.10
2022-08-21T10:00:34.259Z,32.68
2022-08-21T10:01:34.174Z,33.06
2022-08-21T10:02:34.156Z,29.55
2022-08-21T10:03:34.144Z,31.40
2022-08-21T10:04:34.133Z,31.01
2022-08-21T10:05:34.126Z,31.24
2022-08-21T10:06:34.110Z,31.95
2022-08-21T10:07:34.104Z,33.98
2022-08-21T10:08:34.089Z,33.48
2022-08-21T10:09:34.086Z,32.97
2022-08-21T10:10:34.063Z,33.85
2022-08-21T10:11:34.061Z,31.92
2022-08-21T10:12:34.042Z,32.23
2022-08-21T10:13:34.037Z,32.92
2022-08-21T10:14:34.024Z,31.64
2022-08-21T10:15:34.014Z,35.26
2022-08-21T10:16:34.001Z,33.29
2022-08-21T10:17:34.015Z,31.74
2022-08-21T10:18:33.978Z,33.61
2022-08-21T10:19:33.969Z,34.00
2022-08-21T10:20:33.955Z,32.42
2022-08-21T10:21:33.949Z,31.34
2022-08-21T10:22:33.934Z,31.63
2022-08-21T10:23:33.930Z,31.64
2022-08-21T10:24:33.917Z,31.95
2022-08-21T10:25:33.903Z,31.48
2022-08-21T10:26:33.884Z,31.09
2022-08-21T10:27:33.879Z,32.89
2022-08-21T10:28:33.864Z,34.06
2022-08-21T10:29:33.868Z,35.59
2022-08-21T10:30:33.839Z,33.26
2022-08-21T10:31:33.834Z,35.20
2022-08-21T10:32:33.820Z,34.81
2022-08-21T10:33:33.815Z,32.65
2022-08-21T10:34:33.798Z,31.66
2022-08-21T10:35:33.794Z,32.91
2022-08-21T10:36:33.775Z,31.35
2022-08-21T10:37:33.771Z,31.48
2022-08-21T10:38:50.497Z,32.78
2022-08-21T10:39:36.239Z,33.83
2022-08-21T10:40:33.736Z,34.58
2022-08-21T10:41:33.725Z,31.25
2022-08-21T10:42:33.709Z,30.19
2022-08-21T10:43:33.755Z,29.81
2022-08-21T10:44:33.691Z,30.38
2022-08-21T10:45:33.684Z,32.49
2022-08-21T10:46:33.672Z,29.65
2022-08-21T10:47:33.664Z,29.76
2022-08-21T10:48:33.649Z,29.78
2022-08-21T10:49:33.648Z,29.96
2022-08-21T10:50:33.627Z,29.76
2022-08-21T10:51:33.627Z,31.41
2022-08-21T10:52:33.607Z,30.02
2022-08-21T10:53:33.610Z,29.93
2022-08-21T10:54:33.591Z,30.41
2022-08-21T10:55:33.598Z,29.83
2022-08-21T10:56:33.568Z,32.37
2022-08-21T10:57:33.566Z,31.58
2022-08-21T10:58:33.545Z,29.04
2022-08-21T10:59:38.096Z,27.98
2022-08-21T11:00:33.547Z,28.28
2022-08-21T11:01:33.517Z,30.90
2022-08-21T11:02:33.508Z,32.32
2022-08-21T11:03:33.505Z,32.00
2022-08-21T11:04:39.639Z,28.25
2022-08-21T11:05:34.647Z,28.94
2022-08-21T11:06:33.467Z,30.41
2022-08-21T11:07:34.462Z,32.07
2022-08-21T11:08:33.448Z,32.73
2022-08-21T11:09:33.437Z,29.60
2022-08-21T11:10:33.423Z,29.98
2022-08-21T11:11:36.210Z,28.33
2022-08-21T11:12:33.400Z,29.60
2022-08-21T11:13:33.385Z,28.91
2022-08-21T11:14:33.378Z,29.08
2022-08-21T11:15:34.019Z,27.61
2022-08-21T11:16:33.360Z,30.31
2022-08-21T11:17:33.342Z,27.98
2022-08-21T11:18:33.331Z,28.68
2022-08-21T11:19:33.321Z,27.81
2022-08-21T11:20:33.305Z,27.26
2022-08-21T11:21:33.301Z,28.17
2022-08-21T11:22:33.283Z,30.40
2022-08-21T11:23:33.271Z,28.39
2022-08-21T11:24:33.258Z,30.33
2022-08-21T11:25:36.455Z,28.58
2022-08-21T11:26:33.244Z,28.50
2022-08-21T11:27:33.238Z,29.66
2022-08-21T11:28:33.224Z,28.79
2022-08-21T11:29:33.216Z,29.32
2022-08-21T11:30:33.203Z,28.83
2022-08-21T11:31:33.199Z,29.97
2022-08-21T11:32:33.183Z,29.97
2022-08-21T11:33:33.195Z,29.66
2022-08-21T11:34:33.187Z,31.95
2022-08-21T11:35:33.154Z,30.65
2022-08-21T11:36:33.139Z,28.02
2022-08-21T11:37:33.133Z,27.72
2022-08-21T11:38:33.122Z,27.14
2022-08-21T11:39:33.109Z,26.46
2022-08-21T11:40:33.112Z,26.68
2022-08-21T11:41:33.091Z,26.98
2022-08-21T11:42:33.200Z,28.00
2022-08-21T11:43:33.065Z,29.00
2022-08-21T11:44:33.060Z,28.05
2022-08-21T11:45:33.051Z,29.50
2022-08-21T11:46:33.040Z,28.89
2022-08-21T11:47:33.026Z,29.93
2022-08-21T11:48:33.017Z,27.82
2022-08-21T11:49:33.008Z,27.22
2022-08-21T11:50:35.465Z,28.00
2022-08-21T11:51:32.984Z,27.53
2022-08-21T11:52:32.979Z,30.35
2022-08-21T11:53:32.960Z,29.74
2022-08-21T11:54:32.968Z,28.65
2022-08-21T11:55:32.951Z,25.92
2022-08-21T11:56:32.935Z,27.53
2022-08-21T11:57:32.931Z,26.89
2022-08-21T11:58:32.915Z,28.85
2022-08-21T11:59:35.546Z,28.04
2022-08-21T12:00:32.905Z,27.37
2022-08-21T12:01:32.947Z,27.65
2022-08-21T12:02:32.870Z,29.76
2022-08-21T12:03:32.855Z,27.22
2022-08-21T12:04:32.848Z,27.21
2022-08-21T12:05:32.839Z,28.25
2022-08-21T12:06:33.025Z,26.33
2022-08-21T12:07:32.940Z,26.23
2022-08-21T12:08:32.803Z,28.64
2022-08-21T12:09:32.791Z,27.26
2022-08-21T12:10:32.793Z,28.12
2022-08-21T12:11:32.767Z,27.15
2022-08-21T12:12:32.767Z,25.40
2022-08-21T12:13:40.023Z,24.34
2022-08-21T12:14:33.772Z,26.09
2022-08-21T12:15:32.816Z,24.93
2022-08-21T12:16:32.719Z,25.12
2022-08-21T12:17:32.710Z,24.63
2022-08-21T12:18:32.695Z,24.63
2022-08-21T12:19:32.687Z,26.65
2022-08-21T12:20:32.670Z,24.91
2022-08-21T12:21:32.656Z,25.23
2022-08-21T12:22:32.652Z,28.72
2022-08-21T12:23:32.637Z,25.70
2022-08-21T12:24:32.631Z,24.91
2022-08-21T12:25:32.610Z,26.17
2022-08-21T12:26:32.607Z,25.09
2022-08-21T12:27:32.592Z,25.10
2022-08-21T12:28:32.584Z,24.72
2022-08-21T12:29:32.574Z,24.91
2022-08-21T12:30:32.563Z,24.26
2022-08-21T12:31:32.547Z,24.27
2022-08-21T12:32:32.548Z,23.50
2022-08-21T12:33:32.530Z,23.50
2022-08-21T12:34:32.520Z,24.48
2022-08-21T12:35:32.499Z,26.89
2022-08-21T12:36:36.920Z,25.82
2022-08-21T12:37:33.505Z,26.04
2022-08-21T12:38:32.474Z,26.72
2022-08-21T12:39:32.459Z,27.61
2022-08-21T12:40:32.458Z,27.59
2022-08-21T12:41:32.431Z,25.86
2022-08-21T12:42:32.435Z,24.43
2022-08-21T12:43:32.464Z,27.36
2022-08-21T12:44:32.806Z,28.15
2022-08-21T12:45:32.391Z,27.65
2022-08-21T12:46:32.384Z,27.66
2022-08-21T12:47:32.373Z,28.45
2022-08-21T12:48:32.374Z,28.15
2022-08-21T12:49:32.342Z,28.74
2022-08-21T12:50:32.337Z,27.78
2022-08-21T12:51:32.327Z,27.97
2022-08-21T12:52:36.949Z,27.51
2022-08-21T12:53:33.334Z,28.68